sensor_id;sensor_type;location;lat;lon;timestamp;pressure;altitude;pressure_sealevel;temperature;humidity
2268;BME280;11052;43.338;25.502;2023-06-10T00:02:01;100028.44;;;15.76;100.00
2268;BME280;11052;43.338;25.502;2023-06-10T00:04:30;100032.06;;;15.73;100.00
2268;BME280;11052;43.338;25.502;2023-06-10T00:06:57;100027.16;;;15.67;100.00
2268;BME280;11052;43.338;25.502;2023-06-10T00:09:24;100031.72;;;15.64;100.00
2268;BME280;11052;43.338;25.502;2023-06-10T00:11:52;100032.84;;;15.60;100.00
2268;BME280;11052;43.338;25.502;2023-06-10T00:14:19;100031.25;;;15.57;100.00
2268;BME280;11052;43.338;25.502;2023-06-10T00:16:46;100033.78;;;15.59;100.00
2268;BME280;11052;43.338;25.502;2023-06-10T00:19:13;100021.53;;;15.59;100.00
2268;BME280;11052;43.338;25.502;2023-06-10T00:21:42;100029.69;;;15.53;100.00
2268;BME280;11052;43.338;25.502;2023-06-10T00:24:10;100027.16;;;15.52;100.00
2268;BME280;11052;43.338;25.502;2023-06-10T00:26:38;100026.41;;;15.50;100.00
2268;BME280;11052;43.338;25.502;2023-06-10T00:29:06;100027.31;;;15.49;100.00
2268;BME280;11052;43.338;25.502;2023-06-10T00:31:34;100027.16;;;15.52;100.00
2268;BME280;11052;43.338;25.502;2023-06-10T00:34:01;100029.78;;;15.52;100.00
2268;BME280;11052;43.338;25.502;2023-06-10T00:36:29;100029.78;;;15.52;100.00
2268;BME280;11052;43.338;25.502;2023-06-10T00:38:57;100030.78;;;15.49;100.00
2268;BME280;11052;43.338;25.502;2023-06-10T00:41:25;100028.25;;;15.48;100.00
2268;BME280;11052;43.338;25.502;2023-06-10T00:43:53;100026.56;;;15.47;100.00
2268;BME280;11052;43.338;25.502;2023-06-10T00:46:20;100032.53;;;15.33;100.00
2268;BME280;11052;43.338;25.502;2023-06-10T00:48:47;100038.94;;;15.27;100.00
2268;BME280;11052;43.338;25.502;2023-06-10T00:51:15;100038.09;;;15.27;100.00
2268;BME280;11052;43.338;25.502;2023-06-10T00:53:43;100043.31;;;15.27;100.00
2268;BME280;11052;43.338;25.502;2023-06-10T00:56:13;100051.75;;;15.32;100.00
2268;BME280;11052;43.338;25.502;2023-06-10T00:58:41;100042.47;;;15.26;100.00
2268;BME280;11052;43.338;25.502;2023-06-10T01:01:08;100035.41;;;15.28;100.00
2268;BME280;11052;43.338;25.502;2023-06-10T01:03:36;100038.78;;;15.30;100.00
2268;BME280;11052;43.338;25.502;2023-06-10T01:06:10;100039.00;;;15.26;100.00
2268;BME280;11052;43.338;25.502;2023-06-10T01:08:47;100044.88;;;15.14;100.00
2268;BME280;11052;43.338;25.502;2023-06-10T01:11:21;100037.84;;;14.98;100.00
2268;BME280;11052;43.338;25.502;2023-06-10T01:13:51;100038.69;;;14.99;100.00
2268;BME280;11052;43.338;25.502;2023-06-10T01:16:19;100033.72;;;14.94;100.00
2268;BME280;11052;43.338;25.502;2023-06-10T01:18:46;100036.56;;;14.90;100.00
2268;BME280;11052;43.338;25.502;2023-06-10T01:21:19;100032.88;;;14.94;100.00
2268;BME280;11052;43.338;25.502;2023-06-10T01:23:46;100034.66;;;14.93;100.00
2268;BME280;11052;43.338;25.502;2023-06-10T01:26:14;100028.56;;;14.93;100.00
2268;BME280;11052;43.338;25.502;2023-06-10T01:28:46;100038.41;;;14.88;100.00
2268;BME280;11052;43.338;25.502;2023-06-10T01:31:18;100041.03;;;14.88;100.00
2268;BME280;11052;43.338;25.502;2023-06-10T01:33:52;100037.72;;;14.84;100.00
2268;BME280;11052;43.338;25.502;2023-06-10T01:36:21;100037.66;;;14.86;100.00
2268;BME280;11052;43.338;25.502;2023-06-10T01:38:50;100045.91;;;14.61;100.00
2268;BME280;11052;43.338;25.502;2023-06-10T01:41:19;100046.00;;;14.59;100.00
2268;BME280;11052;43.338;25.502;2023-06-10T01:43:48;100038.78;;;14.64;100.00
2268;BME280;11052;43.338;25.502;2023-06-10T01:46:15;100042.84;;;14.70;100.00
2268;BME280;11052;43.338;25.502;2023-06-10T01:48:45;100047.97;;;14.71;100.00
2268;BME280;11052;43.338;25.502;2023-06-10T01:51:12;100045.44;;;14.70;100.00
2268;BME280;11052;43.338;25.502;2023-06-10T01:53:40;100043.50;;;14.73;100.00
2268;BME280;11052;43.338;25.502;2023-06-10T01:56:07;100039.03;;;14.75;100.00
2268;BME280;11052;43.338;25.502;2023-06-10T01:58:35;100031.28;;;14.74;100.00
2268;BME280;11052;43.338;25.502;2023-06-10T02:01:02;100034.75;;;14.74;100.00
2268;BME280;11052;43.338;25.502;2023-06-10T02:03:29;100036.63;;;14.72;100.00
2268;BME280;11052;43.338;25.502;2023-06-10T02:05:56;100041.38;;;14.64;100.00
2268;BME280;11052;43.338;25.502;2023-06-10T02:08:23;100048.22;;;14.67;100.00
2268;BME280;11052;43.338;25.502;2023-06-10T02:10:52;100048.44;;;14.62;100.00
2268;BME280;11052;43.338;25.502;2023-06-10T02:13:19;100057.28;;;14.60;100.00
2268;BME280;11052;43.338;25.502;2023-06-10T02:15:46;100057.97;;;14.63;100.00
2268;BME280;11052;43.338;25.502;2023-06-10T02:18:13;100064.94;;;14.63;100.00
2268;BME280;11052;43.338;25.502;2023-06-10T02:20:40;100062.34;;;14.63;100.00
2268;BME280;11052;43.338;25.502;2023-06-10T02:23:07;100056.28;;;14.62;100.00
2268;BME280;11052;43.338;25.502;2023-06-10T02:25:34;100060.50;;;14.65;100.00
2268;BME280;11052;43.338;25.502;2023-06-10T02:28:03;100066.88;;;14.59;100.00
2268;BME280;11052;43.338;25.502;2023-06-10T02:30:30;100063.94;;;14.48;100.00
2268;BME280;11052;43.338;25.502;2023-06-10T02:32:57;100065.56;;;14.51;100.00
2268;BME280;11052;43.338;25.502;2023-06-10T02:35:24;100074.38;;;14.48;100.00
2268;BME280;11052;43.338;25.502;2023-06-10T02:37:51;100074.47;;;14.47;100.00
2268;BME280;11052;43.338;25.502;2023-06-10T02:40:19;100071.22;;;14.41;100.00
2268;BME280;11052;43.338;25.502;2023-06-10T02:42:46;100072.06;;;14.42;100.00
2268;BME280;11052;43.338;25.502;2023-06-10T02:45:15;100075.41;;;14.27;100.00
2268;BME280;11052;43.338;25.502;2023-06-10T02:47:42;100076.00;;;14.15;100.00
2268;BME280;11052;43.338;25.502;2023-06-10T02:50:09;100073.91;;;14.04;100.00
2268;BME280;11052;43.338;25.502;2023-06-10T02:52:36;100072.50;;;13.97;100.00
2268;BME280;11052;43.338;25.502;2023-06-10T02:55:04;100074.81;;;14.03;100.00
2268;BME280;11052;43.338;25.502;2023-06-10T02:57:32;100077.66;;;13.98;100.00
2268;BME280;11052;43.338;25.502;2023-06-10T02:59:59;100078.41;;;14.00;100.00
2268;BME280;11052;43.338;25.502;2023-06-10T03:02:28;100067.84;;;14.03;100.00
2268;BME280;11052;43.338;25.502;2023-06-10T03:04:57;100071.16;;;14.07;100.00
2268;BME280;11052;43.338;25.502;2023-06-10T03:07:24;100073.53;;;14.11;100.00
2268;BME280;11052;43.338;25.502;2023-06-10T03:09:51;100079.22;;;14.20;100.00
2268;BME280;11052;43.338;25.502;2023-06-10T03:12:18;100077.47;;;14.20;100.00
2268;BME280;11052;43.338;25.502;2023-06-10T03:14:45;100084.97;;;14.26;100.00
2268;BME280;11052;43.338;25.502;2023-06-10T03:17:12;100074.41;;;14.29;100.00
2268;BME280;11052;43.338;25.502;2023-06-10T03:19:41;100078.97;;;14.43;100.00
2268;BME280;11052;43.338;25.502;2023-06-10T03:22:10;100075.00;;;14.53;100.00
2268;BME280;11052;43.338;25.502;2023-06-10T03:24:38;100067.72;;;14.60;100.00
2268;BME280;11052;43.338;25.502;2023-06-10T03:27:07;100077.59;;;14.70;100.00
2268;BME280;11052;43.338;25.502;2023-06-10T03:29:34;100082.47;;;14.76;100.00
2268;BME280;11052;43.338;25.502;2023-06-10T03:32:01;100083.63;;;14.88;100.00
2268;BME280;11052;43.338;25.502;2023-06-10T03:34:28;100086.53;;;14.99;100.00
2268;BME280;11052;43.338;25.502;2023-06-10T03:36:58;100076.47;;;15.09;100.00
2268;BME280;11052;43.338;25.502;2023-06-10T03:39:25;100072.75;;;15.13;100.00
2268;BME280;11052;43.338;25.502;2023-06-10T03:41:54;100073.97;;;15.23;100.00
2268;BME280;11052;43.338;25.502;2023-06-10T03:44:22;100075.00;;;15.36;100.00
2268;BME280;11052;43.338;25.502;2023-06-10T03:46:49;100072.06;;;15.43;100.00
2268;BME280;11052;43.338;25.502;2023-06-10T03:49:17;100071.47;;;15.37;100.00
2268;BME280;11052;43.338;25.502;2023-06-10T03:51:44;100079.25;;;15.55;100.00
2268;BME280;11052;43.338;25.502;2023-06-10T03:54:13;100072.69;;;15.63;100.00
2268;BME280;11052;43.338;25.502;2023-06-10T03:56:40;100073.19;;;15.70;100.00
2268;BME280;11052;43.338;25.502;2023-06-10T03:59:07;100069.16;;;15.80;100.00
2268;BME280;11052;43.338;25.502;2023-06-10T04:01:34;100070.25;;;15.92;100.00
2268;BME280;11052;43.338;25.502;2023-06-10T04:04:03;100068.38;;;15.94;100.00
2268;BME280;11052;43.338;25.502;2023-06-10T04:06:31;100063.47;;;16.03;100.00
2268;BME280;11052;43.338;25.502;2023-06-10T04:08:58;100070.97;;;16.10;100.00
2268;BME280;11052;43.338;25.502;2023-06-10T04:11:26;100076.44;;;16.21;100.00
2268;BME280;11052;43.338;25.502;2023-06-10T04:13:53;100078.38;;;16.33;100.00
2268;BME280;11052;43.338;25.502;2023-06-10T04:16:20;100074.94;;;16.47;100.00
2268;BME280;11052;43.338;25.502;2023-06-10T04:18:47;100079.38;;;16.60;100.00
2268;BME280;11052;43.338;25.502;2023-06-10T04:21:15;100083.56;;;16.79;100.00
2268;BME280;11052;43.338;25.502;2023-06-10T04:23:42;100090.03;;;17.01;100.00
2268;BME280;11052;43.338;25.502;2023-06-10T04:26:09;100081.25;;;17.17;100.00
2268;BME280;11052;43.338;25.502;2023-06-10T04:28:38;100081.88;;;17.34;100.00
2268;BME280;11052;43.338;25.502;2023-06-10T04:31:05;100076.25;;;17.55;100.00
2268;BME280;11052;43.338;25.502;2023-06-10T04:33:32;100084.13;;;17.83;100.00
2268;BME280;11052;43.338;25.502;2023-06-10T04:35:59;100082.00;;;18.02;100.00
2268;BME280;11052;43.338;25.502;2023-06-10T04:38:26;100079.56;;;17.99;100.00
2268;BME280;11052;43.338;25.502;2023-06-10T04:40:53;100084.34;;;18.07;100.00
2268;BME280;11052;43.338;25.502;2023-06-10T04:43:20;100073.16;;;18.18;100.00
2268;BME280;11052;43.338;25.502;2023-06-10T04:45:49;100078.69;;;18.26;100.00
2268;BME280;11052;43.338;25.502;2023-06-10T04:48:16;100076.22;;;18.37;100.00
2268;BME280;11052;43.338;25.502;2023-06-10T04:50:43;100070.56;;;18.43;100.00
2268;BME280;11052;43.338;25.502;2023-06-10T04:53:10;100066.19;;;18.56;100.00
2268;BME280;11052;43.338;25.502;2023-06-10T04:55:37;100070.13;;;18.76;100.00
2268;BME280;11052;43.338;25.502;2023-06-10T04:58:04;100067.72;;;18.98;100.00
2268;BME280;11052;43.338;25.502;2023-06-10T05:00:31;100073.69;;;19.26;100.00
2268;BME280;11052;43.338;25.502;2023-06-10T05:03:00;100074.81;;;19.47;100.00
2268;BME280;11052;43.338;25.502;2023-06-10T05:05:27;100066.63;;;19.88;100.00
2268;BME280;11052;43.338;25.502;2023-06-10T05:07:54;100066.28;;;20.41;100.00
2268;BME280;11052;43.338;25.502;2023-06-10T05:10:21;100073.59;;;20.94;100.00
2268;BME280;11052;43.338;25.502;2023-06-10T05:12:48;100073.75;;;21.15;100.00
2268;BME280;11052;43.338;25.502;2023-06-10T05:15:16;100079.50;;;21.20;100.00
2268;BME280;11052;43.338;25.502;2023-06-10T05:17:43;100078.34;;;21.24;100.00
2268;BME280;11052;43.338;25.502;2023-06-10T05:20:12;100078.31;;;21.58;100.00
2268;BME280;11052;43.338;25.502;2023-06-10T05:22:39;100070.16;;;22.15;100.00
2268;BME280;11052;43.338;25.502;2023-06-10T05:25:07;100064.16;;;22.45;100.00
2268;BME280;11052;43.338;25.502;2023-06-10T05:27:34;100065.59;;;22.91;100.00
2268;BME280;11052;43.338;25.502;2023-06-10T05:30:01;100068.97;;;23.24;100.00
2268;BME280;11052;43.338;25.502;2023-06-10T05:32:30;100075.13;;;23.74;100.00
2268;BME280;11052;43.338;25.502;2023-06-10T05:34:57;100073.53;;;24.21;100.00
2268;BME280;11052;43.338;25.502;2023-06-10T05:37:27;100077.28;;;24.47;100.00
2268;BME280;11052;43.338;25.502;2023-06-10T05:39:54;100081.59;;;24.68;100.00
2268;BME280;11052;43.338;25.502;2023-06-10T05:42:21;100089.66;;;24.86;100.00
2268;BME280;11052;43.338;25.502;2023-06-10T05:44:48;100086.31;;;25.03;100.00
2268;BME280;11052;43.338;25.502;2023-06-10T05:47:15;100089.94;;;24.92;100.00
2268;BME280;11052;43.338;25.502;2023-06-10T05:49:42;100085.09;;;24.78;100.00
2268;BME280;11052;43.338;25.502;2023-06-10T05:52:11;100084.41;;;24.66;100.00
2268;BME280;11052;43.338;25.502;2023-06-10T05:54:39;100083.16;;;24.22;100.00
2268;BME280;11052;43.338;25.502;2023-06-10T05:57:06;100084.34;;;23.89;100.00
2268;BME280;11052;43.338;25.502;2023-06-10T05:59:33;100082.22;;;23.73;100.00
2268;BME280;11052;43.338;25.502;2023-06-10T06:02:01;100096.88;;;23.77;100.00
2268;BME280;11052;43.338;25.502;2023-06-10T06:04:28;100098.28;;;23.91;100.00
2268;BME280;11052;43.338;25.502;2023-06-10T06:06:55;100106.66;;;23.86;100.00
2268;BME280;11052;43.338;25.502;2023-06-10T06:09:22;100104.97;;;23.85;100.00
2268;BME280;11052;43.338;25.502;2023-06-10T06:11:50;100100.03;;;23.62;100.00
2268;BME280;11052;43.338;25.502;2023-06-10T06:14:17;100092.22;;;23.30;100.00
2268;BME280;11052;43.338;25.502;2023-06-10T06:16:44;100087.47;;;23.24;100.00
2268;BME280;11052;43.338;25.502;2023-06-10T06:19:12;100096.31;;;23.13;100.00
2268;BME280;11052;43.338;25.502;2023-06-10T06:21:39;100098.19;;;23.22;100.00
2268;BME280;11052;43.338;25.502;2023-06-10T06:24:06;100087.06;;;23.28;100.00
2268;BME280;11052;43.338;25.502;2023-06-10T06:26:34;100089.84;;;23.27;100.00
2268;BME280;11052;43.338;25.502;2023-06-10T06:29:02;100084.16;;;23.31;100.00
2268;BME280;11052;43.338;25.502;2023-06-10T06:31:30;100092.81;;;23.33;100.00
2268;BME280;11052;43.338;25.502;2023-06-10T06:33:57;100096.44;;;23.42;100.00
2268;BME280;11052;43.338;25.502;2023-06-10T06:36:24;100092.69;;;23.44;100.00
2268;BME280;11052;43.338;25.502;2023-06-10T06:58:19;100080.34;;;24.62;100.00
2268;BME280;11052;43.338;25.502;2023-06-10T07:00:46;100070.84;;;24.98;100.00
2268;BME280;11052;43.338;25.502;2023-06-10T07:03:13;100078.53;;;25.29;100.00
2268;BME280;11052;43.338;25.502;2023-06-10T07:05:41;100077.47;;;25.49;100.00
2268;BME280;11052;43.338;25.502;2023-06-10T07:08:08;100071.84;;;25.52;100.00
2268;BME280;11052;43.338;25.502;2023-06-10T07:10:35;100066.81;;;25.86;100.00
2268;BME280;11052;43.338;25.502;2023-06-10T07:13:02;100070.38;;;25.95;100.00
2268;BME280;11052;43.338;25.502;2023-06-10T07:15:31;100078.63;;;25.74;100.00
2268;BME280;11052;43.338;25.502;2023-06-10T07:17:59;100067.25;;;25.82;100.00
2268;BME280;11052;43.338;25.502;2023-06-10T07:20:26;100072.66;;;25.90;100.00
2268;BME280;11052;43.338;25.502;2023-06-10T07:22:53;100071.81;;;25.89;100.00
2268;BME280;11052;43.338;25.502;2023-06-10T07:25:20;100073.56;;;25.80;100.00
2268;BME280;11052;43.338;25.502;2023-06-10T07:27:47;100081.66;;;25.79;100.00
2268;BME280;11052;43.338;25.502;2023-06-10T07:30:14;100072.66;;;25.90;100.00
2268;BME280;11052;43.338;25.502;2023-06-10T07:32:42;100080.38;;;26.01;100.00
2268;BME280;11052;43.338;25.502;2023-06-10T07:35:10;100071.88;;;26.15;100.00
2268;BME280;11052;43.338;25.502;2023-06-10T07:37:37;100062.03;;;26.61;100.00
2268;BME280;11052;43.338;25.502;2023-06-10T07:40:05;100064.16;;;27.09;100.00
2268;BME280;11052;43.338;25.502;2023-06-10T07:42:35;100062.50;;;27.42;100.00
2268;BME280;11052;43.338;25.502;2023-06-10T07:45:03;100059.00;;;27.92;100.00
2268;BME280;11052;43.338;25.502;2023-06-10T07:47:30;100058.75;;;28.35;100.00
2268;BME280;11052;43.338;25.502;2023-06-10T07:49:58;100058.88;;;28.75;100.00
2268;BME280;11052;43.338;25.502;2023-06-10T07:52:26;100063.06;;;28.85;100.00
2268;BME280;11052;43.338;25.502;2023-06-10T07:54:54;100061.88;;;29.04;100.00
2268;BME280;11052;43.338;25.502;2023-06-10T07:57:21;100054.31;;;29.24;100.00
2268;BME280;11052;43.338;25.502;2023-06-10T07:59:48;100052.59;;;29.31;100.00
2268;BME280;11052;43.338;25.502;2023-06-10T08:02:15;100052.38;;;29.49;100.00
2268;BME280;11052;43.338;25.502;2023-06-10T08:04:42;100062.53;;;29.06;96.02
2268;BME280;11052;43.338;25.502;2023-06-10T08:07:10;100051.97;;;29.21;98.90
2268;BME280;11052;43.338;25.502;2023-06-10T08:09:37;100051.69;;;28.99;100.00
2268;BME280;11052;43.338;25.502;2023-06-10T08:12:06;100049.97;;;29.23;100.00
2268;BME280;11052;43.338;25.502;2023-06-10T08:14:33;100055.00;;;29.57;100.00
2268;BME280;11052;43.338;25.502;2023-06-10T08:17:00;100043.63;;;29.63;89.69
2268;BME280;11052;43.338;25.502;2023-06-10T08:19:27;100047.03;;;29.49;83.72
2268;BME280;11052;43.338;25.502;2023-06-10T08:21:56;100048.84;;;29.01;93.54
2268;BME280;11052;43.338;25.502;2023-06-10T08:24:24;100046.03;;;28.94;90.43
2268;BME280;11052;43.338;25.502;2023-06-10T08:26:51;100042.75;;;28.60;93.32
2268;BME280;11052;43.338;25.502;2023-06-10T08:29:20;100047.59;;;28.56;87.75
2268;BME280;11052;43.338;25.502;2023-06-10T08:31:47;100048.94;;;28.36;93.11
2268;BME280;11052;43.338;25.502;2023-06-10T08:34:14;100044.94;;;28.24;90.89
2268;BME280;11052;43.338;25.502;2023-06-10T08:36:42;100049.59;;;28.22;88.58
2268;BME280;11052;43.338;25.502;2023-06-10T08:39:10;100049.22;;;28.08;91.96
2268;BME280;11052;43.338;25.502;2023-06-10T08:41:43;100041.03;;;28.02;88.72
2268;BME280;11052;43.338;25.502;2023-06-10T08:44:14;100048.44;;;28.41;97.03
2268;BME280;11052;43.338;25.502;2023-06-10T08:46:45;100051.59;;;28.52;85.91
2268;BME280;11052;43.338;25.502;2023-06-10T08:49:17;100046.44;;;28.59;86.79
2268;BME280;11052;43.338;25.502;2023-06-10T08:51:48;100046.72;;;28.72;85.13
2268;BME280;11052;43.338;25.502;2023-06-10T08:54:22;100051.03;;;28.81;92.25
2268;BME280;11052;43.338;25.502;2023-06-10T08:56:55;100043.53;;;28.77;89.16
2268;BME280;11052;43.338;25.502;2023-06-10T08:59:23;100040.09;;;28.52;90.42
2268;BME280;11052;43.338;25.502;2023-06-10T09:01:52;100040.03;;;28.76;91.17
2268;BME280;11052;43.338;25.502;2023-06-10T09:04:20;100044.00;;;29.04;94.28
2268;BME280;11052;43.338;25.502;2023-06-10T09:06:49;100041.44;;;29.27;82.75
2268;BME280;11052;43.338;25.502;2023-06-10T09:09:16;100038.94;;;29.65;80.11
2268;BME280;11052;43.338;25.502;2023-06-10T09:11:43;100029.97;;;29.81;82.57
2268;BME280;11052;43.338;25.502;2023-06-10T09:14:12;100027.00;;;30.29;75.40
2268;BME280;11052;43.338;25.502;2023-06-10T09:16:39;100030.31;;;30.31;78.91
2268;BME280;11052;43.338;25.502;2023-06-10T09:19:07;100021.31;;;29.79;69.75
2268;BME280;11052;43.338;25.502;2023-06-10T09:21:34;100022.81;;;29.50;67.83
2268;BME280;11052;43.338;25.502;2023-06-10T09:24:02;100026.00;;;28.98;69.44
2268;BME280;11052;43.338;25.502;2023-06-10T09:26:29;100026.88;;;28.75;70.72
2268;BME280;11052;43.338;25.502;2023-06-10T09:29:03;100017.00;;;28.99;71.07
2268;BME280;11052;43.338;25.502;2023-06-10T09:31:34;100020.97;;;29.12;72.66
2268;BME280;11052;43.338;25.502;2023-06-10T09:34:06;100021.13;;;29.10;73.44
2268;BME280;11052;43.338;25.502;2023-06-10T09:36:33;100019.34;;;28.94;74.13
2268;BME280;11052;43.338;25.502;2023-06-10T09:39:01;100016.50;;;28.80;74.17
2268;BME280;11052;43.338;25.502;2023-06-10T09:41:32;100016.38;;;28.65;71.45
2268;BME280;11052;43.338;25.502;2023-06-10T09:44:00;100020.09;;;28.56;72.60
2268;BME280;11052;43.338;25.502;2023-06-10T09:46:32;100020.09;;;28.39;74.89
2268;BME280;11052;43.338;25.502;2023-06-10T09:48:59;100012.44;;;28.28;74.25
2268;BME280;11052;43.338;25.502;2023-06-10T09:51:26;100017.72;;;28.12;74.88
2268;BME280;11052;43.338;25.502;2023-06-10T09:53:53;100013.56;;;28.01;76.73
2268;BME280;11052;43.338;25.502;2023-06-10T09:56:21;100013.38;;;28.03;78.53
2268;BME280;11052;43.338;25.502;2023-06-10T09:58:49;100008.41;;;28.16;80.33
2268;BME280;11052;43.338;25.502;2023-06-10T10:01:19;100004.28;;;28.30;78.14
2268;BME280;11052;43.338;25.502;2023-06-10T10:03:49;100004.91;;;28.07;76.35
2268;BME280;11052;43.338;25.502;2023-06-10T10:06:18;100002.75;;;28.19;76.65
2268;BME280;11052;43.338;25.502;2023-06-10T10:08:47;100003.75;;;28.18;75.83
2268;BME280;11052;43.338;25.502;2023-06-10T10:11:17;99997.94;;;28.23;80.39
2268;BME280;11052;43.338;25.502;2023-06-10T10:13:45;100001.59;;;28.22;82.51
2268;BME280;11052;43.338;25.502;2023-06-10T10:16:16;100004.56;;;28.19;79.67
2268;BME280;11052;43.338;25.502;2023-06-10T10:18:49;100003.72;;;27.94;77.96
2268;BME280;11052;43.338;25.502;2023-06-10T10:21:22;100003.91;;;28.17;79.76
2268;BME280;11052;43.338;25.502;2023-06-10T10:23:53;99995.91;;;28.00;78.33
2268;BME280;11052;43.338;25.502;2023-06-10T10:26:25;99997.75;;;28.16;79.96
2268;BME280;11052;43.338;25.502;2023-06-10T10:29:01;100002.41;;;28.14;77.75
2268;BME280;11052;43.338;25.502;2023-06-10T10:31:32;99993.78;;;28.28;78.08
2268;BME280;11052;43.338;25.502;2023-06-10T10:34:06;99994.06;;;28.58;80.64
2268;BME280;11052;43.338;25.502;2023-06-10T10:36:35;99983.41;;;28.50;74.59
2268;BME280;11052;43.338;25.502;2023-06-10T10:39:04;99981.34;;;28.76;79.71
2268;BME280;11052;43.338;25.502;2023-06-10T10:41:31;99982.06;;;29.17;80.46
2268;BME280;11052;43.338;25.502;2023-06-10T10:43:59;99974.06;;;29.48;77.08
2268;BME280;11052;43.338;25.502;2023-06-10T10:46:27;99975.16;;;29.62;78.59
2268;BME280;11052;43.338;25.502;2023-06-10T10:48:55;99974.84;;;30.11;74.87
2268;BME280;11052;43.338;25.502;2023-06-10T10:51:24;99969.84;;;30.60;72.96
2268;BME280;11052;43.338;25.502;2023-06-10T10:54:12;99968.84;;;30.76;69.50
2268;BME280;11052;43.338;25.502;2023-06-10T10:57:12;99971.59;;;31.12;71.73
2268;BME280;11052;43.338;25.502;2023-06-10T10:59:50;99964.97;;;31.08;70.15
2268;BME280;11052;43.338;25.502;2023-06-10T11:02:33;99960.00;;;30.90;66.81
2268;BME280;11052;43.338;25.502;2023-06-10T11:05:01;99960.00;;;30.75;67.77
2268;BME280;11052;43.338;25.502;2023-06-10T11:07:31;99952.13;;;31.03;69.47
2268;BME280;11052;43.338;25.502;2023-06-10T11:09:59;99950.00;;;30.98;66.79
2268;BME280;11052;43.338;25.502;2023-06-10T11:12:40;99945.78;;;30.75;65.02
2268;BME280;11052;43.338;25.502;2023-06-10T11:15:08;99945.31;;;31.01;67.80
2268;BME280;11052;43.338;25.502;2023-06-10T11:17:35;99937.38;;;30.78;64.37
2268;BME280;11052;43.338;25.502;2023-06-10T11:20:02;99935.25;;;30.58;62.59
2268;BME280;11052;43.338;25.502;2023-06-10T11:22:32;99937.53;;;31.06;61.92
2268;BME280;11052;43.338;25.502;2023-06-10T11:24:59;99928.69;;;30.76;59.87
2268;BME280;11052;43.338;25.502;2023-06-10T11:27:37;99925.81;;;30.92;60.86
2268;BME280;11052;43.338;25.502;2023-06-10T11:30:20;99922.34;;;30.77;58.37
2268;BME280;11052;43.338;25.502;2023-06-10T11:32:51;99926.00;;;31.05;59.24
2268;BME280;11052;43.338;25.502;2023-06-10T11:35:19;99917.44;;;31.31;60.99
2268;BME280;11052;43.338;25.502;2023-06-10T11:37:49;99921.78;;;31.32;56.79
2268;BME280;11052;43.338;25.502;2023-06-10T11:40:16;99912.38;;;31.57;63.05
2268;BME280;11052;43.338;25.502;2023-06-10T11:42:43;99911.53;;;31.57;61.45
2268;BME280;11052;43.338;25.502;2023-06-10T11:45:14;99902.78;;;31.48;59.04
2268;BME280;11052;43.338;25.502;2023-06-10T11:47:55;99896.72;;;31.04;57.50
2268;BME280;11052;43.338;25.502;2023-06-10T11:50:28;99893.72;;;30.77;58.83
2268;BME280;11052;43.338;25.502;2023-06-10T11:52:57;99888.06;;;31.02;58.53
2268;BME280;11052;43.338;25.502;2023-06-10T11:55:25;99887.78;;;30.96;57.41
2268;BME280;11052;43.338;25.502;2023-06-10T11:57:52;99886.03;;;30.89;55.59
2268;BME280;11052;43.338;25.502;2023-06-10T12:00:23;99882.06;;;31.00;57.86
2268;BME280;11052;43.338;25.502;2023-06-10T12:02:56;99877.03;;;31.11;58.41
2268;BME280;11052;43.338;25.502;2023-06-10T12:05:24;99878.25;;;31.09;59.44
2268;BME280;11052;43.338;25.502;2023-06-10T12:08:10;99873.91;;;31.08;53.31
2268;BME280;11052;43.338;25.502;2023-06-10T12:10:41;99869.59;;;31.28;53.45
2268;BME280;11052;43.338;25.502;2023-06-10T12:13:09;99867.97;;;31.12;54.94
2268;BME280;11052;43.338;25.502;2023-06-10T12:15:36;99862.75;;;31.04;56.13
2268;BME280;11052;43.338;25.502;2023-06-10T12:18:04;99869.22;;;30.95;58.15
2268;BME280;11052;43.338;25.502;2023-06-10T12:20:32;99868.97;;;31.26;56.52
2268;BME280;11052;43.338;25.502;2023-06-10T12:23:01;99861.56;;;31.49;56.75
2268;BME280;11052;43.338;25.502;2023-06-10T12:25:36;99864.75;;;31.38;52.84
2268;BME280;11052;43.338;25.502;2023-06-10T12:28:04;99871.59;;;31.41;54.63
2268;BME280;11052;43.338;25.502;2023-06-10T12:30:32;99863.63;;;31.69;55.26
2268;BME280;11052;43.338;25.502;2023-06-10T12:32:59;99858.63;;;31.66;51.51
2268;BME280;11052;43.338;25.502;2023-06-10T12:35:27;99863.59;;;31.26;51.31
2268;BME280;11052;43.338;25.502;2023-06-10T12:37:55;99859.63;;;31.01;52.94
2268;BME280;11052;43.338;25.502;2023-06-10T12:40:26;99859.19;;;30.82;56.65
2268;BME280;11052;43.338;25.502;2023-06-10T12:42:55;99853.19;;;30.80;53.53
2268;BME280;11052;43.338;25.502;2023-06-10T12:45:29;99854.19;;;30.94;52.48
2268;BME280;11052;43.338;25.502;2023-06-10T12:48:07;99850.31;;;30.96;54.54
2268;BME280;11052;43.338;25.502;2023-06-10T12:50:35;99849.66;;;30.94;54.48
2268;BME280;11052;43.338;25.502;2023-06-10T12:53:04;99850.19;;;31.05;56.88
2268;BME280;11052;43.338;25.502;2023-06-10T12:55:31;99855.09;;;31.01;52.06
2268;BME280;11052;43.338;25.502;2023-06-10T12:58:00;99849.44;;;31.11;49.63
2268;BME280;11052;43.338;25.502;2023-06-10T13:00:27;99848.81;;;31.51;54.07
2268;BME280;11052;43.338;25.502;2023-06-10T13:02:55;99846.13;;;31.73;51.74
2268;BME280;11052;43.338;25.502;2023-06-10T13:05:23;99847.78;;;31.74;48.26
2268;BME280;11052;43.338;25.502;2023-06-10T13:07:50;99853.47;;;31.64;45.98
2268;BME280;11052;43.338;25.502;2023-06-10T13:10:17;99851.34;;;31.59;47.74
2268;BME280;11052;43.338;25.502;2023-06-10T13:12:44;99853.22;;;31.80;46.05